Terminal Aerodrome Forecast
Issued by NWS Louisville, KY

Home | Current Version | Previous Version | Text Only | Print | Product List | Glossary On
Versions: 1 2 3 4 5 6 7 8 9 10 11 12 13 14 15 16 17 18 19 20 21 22 23 24
000
FTUS43 KLMK 292000 AAA
TAFLEX
TAF AMD
KLEX 292024Z 2920/3018 22014G21KT 4SM -TSRA BKN035CB BKN250
     FM292030 27015G30KT 3SM TSRA BKN025CB
     FM292100 24014G20KT P6SM VCTS BKN040CB BKN100
     FM292300 27012KT P6SM SCT050 SCT250
     FM301000 21005KT 6SM BR SCT250
     FM301400 24012G18KT P6SM SCT040=

USA.gov is the U.S. government's official web portal to all federal, state and local government web resources and services.